Aviation Digital Data Service (ADDS)

Output produced by TAFs form (0221 UTC 02 October 2014)
found at http://aviationweather.gov/adds/tafs/
 
KEGE 020201Z 0202/0224 21009G15KT P6SM VCSH BKN015 OVC025 
     FM020300 29007KT P6SM VCSH SCT025 BKN045 
     FM020900 09005KT P6SM FEW020 BKN080 
     FM021300 VRB03KT P6SM SKC 
     FM021800 25009KT P6SM SCT090 AMD LTD TO CLD VIS AND WIND TIL 021300